Flight Track Log - Related Links

Times and Time Zones

All times are in EDT time to prevent confusion due to time zone crossing. See the FSR411 flight status page for this flight to view local times or setup timezone preferences in your user account.

Time Position Orientation Groundspeed Altitude Reporting Facility
EDT Latitude Longitude Course Direction KTS MPH feet Rate Location/Type
Wed 10:57:34 39.7500 -86.3000 314° West 166 191 1,700  Level Indianapolis TRACON
Wed 10:58:46 39.8000 -86.3667 314° West 265 305 3,100 1,227 Climbing Indianapolis TRACON
Wed 10:59:46 39.8667 -86.4000 339° North 260 299 4,400 2,316 Climbing Indianapolis TRACON
Wed 11:00:40 39.9167 -86.4167 346° North 255 293 7,500 3,341 Climbing Indianapolis TRACON
Wed 11:01:14 39.9611 -86.4375 340° North 256 295 9,300 2,813 Climbing Indianapolis Center
Wed 11:02:16 40.0408 -86.4700 343° North 288 331 12,000 2,177 Climbing Indianapolis Center
Wed 11:03:18 40.1369 -86.5100 342° North 350 403 13,800 1,714 Climbing Indianapolis Center
Wed 11:04:15 40.1944 -86.6136 306° West 369 425 15,400 1,160 Climbing Chicago Center
Wed 11:05:17 40.2119 -86.7464 280° West 374 430 16,100 339 Climbing Chicago Center
Wed 11:06:19 40.2264 -86.8792 278° West 374 430 16,100  Level Chicago Center
Wed 11:07:21 40.2450 -87.0125 280° West 375 432 16,100  Level Chicago Center
Wed 11:08:23 40.2617 -87.1475 279° West 377 434 16,100  Level Chicago Center
Wed 11:09:25 40.2831 -87.3100 280° West 379 436 16,100  Level Chicago Center
Wed 11:10:27 40.2997 -87.4450 279° West 379 436 16,100  Level Chicago Center
Wed 11:11:29 40.3183 -87.5928 279° West 382 440 16,100 -48 Level Chicago Center
Wed 11:12:31 40.3353 -87.7272 279° West 378 435 16,000 -97 Descending Chicago Center
Wed 11:13:33 40.3528 -87.8617 280° West 376 433 15,900 -683 Descending Chicago Center
Wed 11:14:34 40.3683 -87.9892 279° West 358 412 14,600 -1,561 Descending Chicago Center
Wed 11:15:36 40.3739 -88.1128 273° West 344 396 12,700 -1,887 Descending Chicago Center
Wed 11:16:38 40.3417 -88.2228 249° West 325 374 10,700 -2,177 Descending Chicago Center
Wed 11:17:40 40.3483 -88.3467 274° West 284 327 8,200 -1,984 Descending Chicago Center
Wed 11:18:42 40.3728 -88.4433 288° West 279 321 6,600 -1,065 Descending Chicago Center
Wed 11:19:44 40.3936 -88.5347 287° West 259 298 6,000 -1,210 Descending Chicago Center
Wed 11:20:46 40.4117 -88.6192 286° West 245 282 4,100 -1,452 Descending Chicago Center
Wed 11:21:48 40.4314 -88.7044 287° West 245 282 3,000 -532 Descending Chicago Center
Wed 11:22:50 40.4453 -88.7753 284° West 208 239 3,000 -435 Level Chicago Center
Wed 11:23:52 40.4589 -88.8369 286° West 188 216 2,100 -677 Descending Chicago Center
Wed 11:24:54 40.4747 -88.8900 291° West 170 196 1,600 -484 Descending Chicago Center
Wed 11:26:00 40.4667 -88.9000 270° West  Level FlightAware Approximate
Wed 11:33:00 40.4771 -88.9159 270° West  Level Estimated
Wed 11:34:00 40.4771 -88.9159 270° West  Level Estimated
Wed 11:35:00 40.4771 -88.9159 270° West  Level Estimated

Login

Don't have an account? Register now (free) for customized features, flight alerts, and more!